createdAt,value
2022-10-09T00:01:06.612Z,14.44
2022-10-09T00:03:34.430Z,14.69
2022-10-09T00:06:01.799Z,14.62
2022-10-09T00:08:29.301Z,14.43
2022-10-09T00:10:56.934Z,14.51
2022-10-09T00:13:24.235Z,14.55
2022-10-09T00:15:51.670Z,14.56
2022-10-09T00:18:19.301Z,14.51
2022-10-09T00:20:46.813Z,14.57
2022-10-09T00:23:16.562Z,14.56
2022-10-09T00:25:54.474Z,14.70
2022-10-09T00:28:22.474Z,14.82
2022-10-09T00:30:50.155Z,14.74
2022-10-09T00:33:17.560Z,14.64
2022-10-09T00:35:44.949Z,14.64
2022-10-09T00:38:12.597Z,14.30
2022-10-09T00:40:40.193Z,13.24
2022-10-09T00:43:15.368Z,13.77
2022-10-09T00:45:50.561Z,13.50
2022-10-09T00:48:17.936Z,13.41
2022-10-09T00:50:49.776Z,13.35
2022-10-09T00:53:18.086Z,13.45
2022-10-09T00:55:45.758Z,13.37
2022-10-09T00:58:13.156Z,13.81
2022-10-09T01:00:40.833Z,13.26
2022-10-09T01:03:08.539Z,13.47
2022-10-09T01:05:55.115Z,13.45
2022-10-09T01:08:32.175Z,13.49
2022-10-09T01:11:15.266Z,13.75
2022-10-09T01:13:59.410Z,13.77
2022-10-09T01:16:32.264Z,13.41
2022-10-09T01:19:44.829Z,13.95
2022-10-09T01:22:33.265Z,13.93
2022-10-09T01:25:05.431Z,13.84
2022-10-09T01:27:33.447Z,13.44
2022-10-09T01:30:04.243Z,13.79
2022-10-09T01:32:38.841Z,13.49
2022-10-09T01:35:06.995Z,13.70
2022-10-09T01:37:34.711Z,13.29
2022-10-09T01:40:02.072Z,13.43
2022-10-09T01:42:29.639Z,13.87
2022-10-09T01:44:57.100Z,13.77
2022-10-09T01:47:24.413Z,13.76
2022-10-09T01:49:56.713Z,13.73
2022-10-09T01:52:42.233Z,13.81
2022-10-09T01:55:31.250Z,13.73
2022-10-09T01:58:11.616Z,14.10
2022-10-09T02:00:44.994Z,14.52
2022-10-09T02:03:13.473Z,13.95
2022-10-09T02:05:41.102Z,14.16
2022-10-09T02:08:09.471Z,14.10
2022-10-09T02:10:37.070Z,13.65
2022-10-09T02:13:05.030Z,13.82
2022-10-09T02:15:37.318Z,13.35
2022-10-09T02:18:08.229Z,13.43
2022-10-09T02:20:37.025Z,13.91
2022-10-09T02:23:06.001Z,13.52
2022-10-09T02:25:33.521Z,13.46
2022-10-09T02:28:01.467Z,13.21
2022-10-09T02:30:31.640Z,13.57
2022-10-09T02:32:59.094Z,13.74
2022-10-09T02:35:26.434Z,13.50
2022-10-09T02:37:53.997Z,13.52
2022-10-09T02:40:21.336Z,13.53
2022-10-09T02:42:49.489Z,13.39
2022-10-09T02:45:17.422Z,13.46
2022-10-09T02:47:44.730Z,13.45
2022-10-09T02:50:12.092Z,13.36
2022-10-09T02:52:39.743Z,13.64
2022-10-09T02:55:07.416Z,13.64
2022-10-09T02:57:34.731Z,13.36
2022-10-09T03:00:02.732Z,13.60
2022-10-09T03:02:30.211Z,13.32
2022-10-09T03:04:57.583Z,13.97
2022-10-09T03:07:25.208Z,13.54
2022-10-09T03:09:52.906Z,13.80
2022-10-09T03:12:22.111Z,13.32
2022-10-09T03:14:49.827Z,13.24
2022-10-09T03:17:17.309Z,13.19
2022-10-09T03:19:44.619Z,13.23
2022-10-09T03:22:12.278Z,13.26
2022-10-09T03:24:39.710Z,13.33
2022-10-09T03:27:07.053Z,13.28
2022-10-09T03:29:34.661Z,13.51
2022-10-09T03:32:02.542Z,13.30
2022-10-09T03:34:29.934Z,13.43
2022-10-09T03:36:57.515Z,14.04
2022-10-09T03:39:24.839Z,13.44
2022-10-09T03:41:52.201Z,13.57
2022-10-09T03:44:19.765Z,14.10
2022-10-09T03:46:47.154Z,14.46
2022-10-09T03:49:14.938Z,14.19
2022-10-09T03:51:42.520Z,14.23
2022-10-09T03:54:09.960Z,13.95
2022-10-09T03:56:37.285Z,13.86
2022-10-09T03:59:07.304Z,13.82
2022-10-09T04:01:34.649Z,13.47
2022-10-09T04:04:02.332Z,13.91
2022-10-09T04:06:29.636Z,13.65
2022-10-09T04:08:57.208Z,13.62
2022-10-09T04:11:24.816Z,13.25
2022-10-09T04:13:52.138Z,13.71
2022-10-09T04:16:19.646Z,13.80
2022-10-09T04:18:47.927Z,13.56
2022-10-09T04:21:15.221Z,13.70
2022-10-09T04:23:42.556Z,13.85
2022-10-09T04:26:11.024Z,13.68
2022-10-09T04:28:38.392Z,14.19
2022-10-09T04:31:05.829Z,13.64
2022-10-09T04:33:33.879Z,13.81
2022-10-09T04:36:01.180Z,13.53
2022-10-09T04:38:28.552Z,13.62
2022-10-09T04:41:00.963Z,13.30
2022-10-09T04:43:28.484Z,13.66
2022-10-09T04:45:56.323Z,13.45
2022-10-09T04:48:24.029Z,13.31
2022-10-09T04:50:51.500Z,13.21
2022-10-09T04:53:19.089Z,13.37
2022-10-09T04:55:46.469Z,13.68
2022-10-09T04:58:13.877Z,13.42
2022-10-09T05:00:42.624Z,13.65
2022-10-09T05:03:10.083Z,13.49
2022-10-09T05:05:37.542Z,13.67
2022-10-09T05:08:05.162Z,13.75
2022-10-09T05:10:32.556Z,14.21
2022-10-09T05:13:00.151Z,14.45
2022-10-09T05:15:27.792Z,14.24
2022-10-09T05:17:55.230Z,14.06
2022-10-09T05:20:22.649Z,14.32
2022-10-09T05:22:50.638Z,13.90
2022-10-09T05:25:18.268Z,13.42
2022-10-09T05:27:45.724Z,13.85
2022-10-09T05:30:13.527Z,13.66
2022-10-09T05:32:40.825Z,14.11
2022-10-09T05:35:08.452Z,13.56
2022-10-09T05:37:36.047Z,13.79
2022-10-09T05:40:03.534Z,13.54
2022-10-09T05:42:30.882Z,14.27
2022-10-09T05:44:58.632Z,13.98
2022-10-09T05:47:25.948Z,13.95
2022-10-09T05:49:53.278Z,14.59
2022-10-09T05:52:20.849Z,13.87
2022-10-09T05:54:48.445Z,13.65
2022-10-09T05:57:15.739Z,13.76
2022-10-09T05:59:43.881Z,14.09
2022-10-09T06:02:11.301Z,13.80
2022-10-09T06:04:38.967Z,13.98
2022-10-09T06:07:06.274Z,13.87
2022-10-09T06:09:33.847Z,14.11
2022-10-09T06:12:01.426Z,13.77
2022-10-09T06:14:28.860Z,13.85
2022-10-09T06:16:56.316Z,14.08
2022-10-09T06:19:24.057Z,13.73
2022-10-09T06:21:51.893Z,13.54
2022-10-09T06:24:28.197Z,13.46
2022-10-09T06:26:57.131Z,14.01
2022-10-09T06:29:24.557Z,13.71
2022-10-09T06:31:51.954Z,13.41
2022-10-09T06:34:19.602Z,13.55
2022-10-09T06:36:46.913Z,13.81
2022-10-09T06:39:14.270Z,14.15
2022-10-09T06:41:41.980Z,13.95
2022-10-09T06:44:16.253Z,14.59
2022-10-09T06:46:45.078Z,14.30
2022-10-09T06:49:12.426Z,13.93
2022-10-09T06:51:40.273Z,14.24
2022-10-09T06:54:12.610Z,14.34
2022-10-09T06:56:39.982Z,14.18
2022-10-09T06:59:08.018Z,14.13
2022-10-09T07:01:35.440Z,14.24
2022-10-09T07:04:06.894Z,14.10
2022-10-09T07:06:37.209Z,14.08
2022-10-09T07:09:06.320Z,14.76
2022-10-09T07:11:38.171Z,14.53
2022-10-09T07:14:07.200Z,14.45
2022-10-09T07:16:36.278Z,14.29
2022-10-09T07:19:07.395Z,14.52
2022-10-09T07:21:35.582Z,14.68
2022-10-09T07:24:03.128Z,15.03
2022-10-09T07:26:31.586Z,15.35
2022-10-09T07:28:59.164Z,15.00
2022-10-09T07:31:26.615Z,15.32
2022-10-09T07:33:54.986Z,14.90
2022-10-09T07:36:22.753Z,15.18
2022-10-09T07:38:54.558Z,15.23
2022-10-09T07:41:22.603Z,15.32
2022-10-09T07:43:50.192Z,15.29
2022-10-09T07:46:18.763Z,15.38
2022-10-09T07:48:46.419Z,15.94
2022-10-09T07:51:17.529Z,15.49
2022-10-09T07:53:45.083Z,15.83
2022-10-09T07:56:20.190Z,16.25
2022-10-09T07:59:10.649Z,15.94
2022-10-09T08:01:38.815Z,15.61
2022-10-09T08:04:06.477Z,15.84
2022-10-09T08:06:34.167Z,15.64
2022-10-09T08:09:02.041Z,15.64
2022-10-09T08:11:29.894Z,15.58
2022-10-09T08:13:57.273Z,15.69
2022-10-09T08:16:24.997Z,16.23
2022-10-09T08:18:59.169Z,16.23
2022-10-09T08:21:28.369Z,16.20
2022-10-09T08:23:57.361Z,16.06
2022-10-09T08:26:25.094Z,15.90
2022-10-09T08:29:02.387Z,16.12
2022-10-09T08:31:30.085Z,16.50
2022-10-09T08:33:59.020Z,15.98
2022-10-09T08:36:26.581Z,16.23
2022-10-09T08:38:54.190Z,15.99
2022-10-09T08:41:29.274Z,15.82
2022-10-09T08:44:02.812Z,16.46
2022-10-09T08:46:35.114Z,16.37
2022-10-09T08:49:03.228Z,16.92
2022-10-09T08:51:32.954Z,16.30
2022-10-09T08:54:10.468Z,16.60
2022-10-09T08:56:38.095Z,16.51
2022-10-09T08:59:05.438Z,16.57
2022-10-09T09:01:40.029Z,16.69
2022-10-09T09:04:54.403Z,16.49
2022-10-09T09:07:25.049Z,16.81
2022-10-09T09:09:55.129Z,17.37
2022-10-09T09:12:42.540Z,16.89
2022-10-09T09:15:33.272Z,16.84
2022-10-09T09:18:19.009Z,17.01
2022-10-09T09:20:51.977Z,16.99
2022-10-09T09:23:22.941Z,17.24
2022-10-09T09:25:50.628Z,17.48
2022-10-09T09:28:33.725Z,17.20
2022-10-09T09:31:13.152Z,17.28
2022-10-09T09:34:04.394Z,17.33
2022-10-09T09:36:35.238Z,17.60
2022-10-09T09:41:50.158Z,17.98
2022-10-09T09:44:17.458Z,18.07
2022-10-09T09:46:46.002Z,18.18
2022-10-09T09:49:21.492Z,17.94
2022-10-09T09:51:48.929Z,18.47
2022-10-09T09:54:26.777Z,19.00
2022-10-09T09:57:18.289Z,18.89
2022-10-09T09:59:46.037Z,18.29
2022-10-09T10:02:23.964Z,18.25
2022-10-09T10:04:53.522Z,18.79
2022-10-09T10:07:30.335Z,18.39
2022-10-09T10:10:10.364Z,19.31
2022-10-09T10:12:46.360Z,18.75
2022-10-09T10:15:29.882Z,18.65
2022-10-09T10:18:05.254Z,18.69
2022-10-09T10:20:41.238Z,18.59
2022-10-09T10:23:44.029Z,18.81
2022-10-09T10:26:25.579Z,19.34
2022-10-09T10:29:08.407Z,18.72
2022-10-09T10:31:39.138Z,18.65
2022-10-09T10:34:09.377Z,18.97
2022-10-09T10:36:37.019Z,18.44
2022-10-09T10:39:13.095Z,19.04
2022-10-09T10:41:42.667Z,19.46
2022-10-09T10:44:16.981Z,19.59
2022-10-09T10:46:53.635Z,18.72
2022-10-09T10:49:21.737Z,18.97
2022-10-09T10:52:08.564Z,19.51
2022-10-09T10:54:47.886Z,19.38
2022-10-09T10:57:24.380Z,19.33
2022-10-09T11:00:06.445Z,19.40
2022-10-09T11:02:41.045Z,19.36
2022-10-09T11:05:18.522Z,19.10
2022-10-09T11:08:24.666Z,19.28
2022-10-09T11:11:00.955Z,19.57
2022-10-09T11:14:07.307Z,20.00
2022-10-09T11:16:57.228Z,20.60
2022-10-09T11:19:33.828Z,20.87
2022-10-09T11:22:30.258Z,20.23
2022-10-09T11:25:12.698Z,19.12
2022-10-09T11:27:53.748Z,19.65
2022-10-09T11:30:21.349Z,19.97
2022-10-09T11:32:56.754Z,20.58
2022-10-09T11:35:25.948Z,20.25
2022-10-09T11:38:07.912Z,20.34
2022-10-09T11:40:40.857Z,20.24
2022-10-09T11:43:26.452Z,20.26
2022-10-09T11:46:15.377Z,20.35
2022-10-09T11:48:44.505Z,19.86
2022-10-09T11:51:31.869Z,19.88
2022-10-09T11:53:59.201Z,20.24
2022-10-09T11:56:28.413Z,20.69
2022-10-09T11:58:58.479Z,20.13
2022-10-09T12:01:31.671Z,20.47
2022-10-09T12:04:20.902Z,20.01
2022-10-09T12:06:57.231Z,19.32
2022-10-09T12:09:31.957Z,20.14
2022-10-09T12:12:07.525Z,19.70
2022-10-09T12:14:36.563Z,20.01
2022-10-09T12:17:38.403Z,20.80
2022-10-09T12:20:15.354Z,20.95
2022-10-09T12:23:07.342Z,21.11
2022-10-09T12:25:43.197Z,20.57
2022-10-09T12:28:28.242Z,20.95
2022-10-09T12:30:56.749Z,21.06
2022-10-09T12:33:25.553Z,20.64
2022-10-09T12:36:10.012Z,20.17
2022-10-09T12:38:37.589Z,20.43
2022-10-09T12:41:06.475Z,20.74
2022-10-09T12:43:33.870Z,20.16
2022-10-09T12:46:01.608Z,20.76
2022-10-09T12:48:29.153Z,20.36
2022-10-09T12:50:56.492Z,20.17
2022-10-09T12:53:27.402Z,20.59
2022-10-09T12:55:58.593Z,20.95
2022-10-09T12:58:33.431Z,21.34
2022-10-09T13:01:02.426Z,20.74
2022-10-09T13:03:33.115Z,20.86
2022-10-09T13:06:01.117Z,20.53
2022-10-09T13:08:38.491Z,20.86
2022-10-09T13:11:09.877Z,20.92
2022-10-09T13:13:37.348Z,21.10
2022-10-09T13:16:08.464Z,20.90
2022-10-09T13:18:38.908Z,21.47
2022-10-09T13:21:22.386Z,20.37
2022-10-09T13:23:50.325Z,20.93
2022-10-09T13:26:28.104Z,20.82
2022-10-09T13:28:56.481Z,21.13
2022-10-09T13:31:24.045Z,20.09
2022-10-09T13:33:51.366Z,20.37
2022-10-09T13:36:19.385Z,21.04
2022-10-09T13:38:47.046Z,19.76
2022-10-09T13:41:16.102Z,19.46
2022-10-09T13:43:43.690Z,20.23
2022-10-09T13:46:11.018Z,20.66
2022-10-09T13:48:39.473Z,19.85
2022-10-09T13:51:07.097Z,19.80
2022-10-09T13:53:34.505Z,19.72
2022-10-09T13:56:01.902Z,20.16
2022-10-09T13:58:29.557Z,20.58
2022-10-09T14:00:58.084Z,21.06
2022-10-09T14:03:25.657Z,20.73
2022-10-09T14:05:58.731Z,20.82
2022-10-09T14:08:26.311Z,20.82
2022-10-09T14:10:53.699Z,20.98
2022-10-09T14:13:21.800Z,20.67
2022-10-09T14:15:49.534Z,21.03
2022-10-09T14:18:16.857Z,21.22
2022-10-09T14:20:44.153Z,20.77
2022-10-09T14:23:13.360Z,20.90
2022-10-09T14:25:40.746Z,21.07
2022-10-09T14:28:08.210Z,21.13
2022-10-09T14:30:40.264Z,20.86
2022-10-09T14:33:07.600Z,21.09
2022-10-09T14:35:35.056Z,20.77
2022-10-09T14:38:02.763Z,20.56
2022-10-09T14:40:30.108Z,20.69
2022-10-09T14:42:57.418Z,20.83
2022-10-09T14:45:25.012Z,20.97
2022-10-09T14:47:52.334Z,20.85
2022-10-09T14:50:19.697Z,20.87
2022-10-09T14:52:47.533Z,20.60
2022-10-09T14:55:15.073Z,20.65
2022-10-09T14:57:43.588Z,20.58
2022-10-09T15:00:11.959Z,20.45
2022-10-09T15:02:39.318Z,20.44
2022-10-09T15:05:06.855Z,20.38
2022-10-09T15:07:34.476Z,20.31
2022-10-09T15:10:01.779Z,20.21
2022-10-09T15:12:29.154Z,20.15
2022-10-09T15:14:56.827Z,20.11
2022-10-09T15:17:24.214Z,20.06
2022-10-09T15:19:53.905Z,19.97
2022-10-09T15:22:21.474Z,19.92
2022-10-09T15:24:49.533Z,19.90
2022-10-09T15:27:16.869Z,19.83
2022-10-09T15:29:44.432Z,19.81
2022-10-09T15:32:11.882Z,19.75
2022-10-09T15:34:41.165Z,19.65
2022-10-09T15:37:09.184Z,19.62
2022-10-09T15:39:36.505Z,19.59
2022-10-09T15:42:03.943Z,19.47
2022-10-09T15:44:31.538Z,19.41
2022-10-09T15:46:58.871Z,19.31
2022-10-09T15:49:26.292Z,19.23
2022-10-09T15:51:53.937Z,19.19
2022-10-09T15:54:21.270Z,19.03
2022-10-09T15:56:48.626Z,19.00
2022-10-09T15:59:19.310Z,18.89
2022-10-09T16:01:46.656Z,18.87
2022-10-09T16:04:15.969Z,18.77
2022-10-09T16:06:43.288Z,18.64
2022-10-09T16:09:10.594Z,18.44
2022-10-09T16:11:38.476Z,18.54
2022-10-09T16:14:05.839Z,18.38
2022-10-09T16:16:33.231Z,18.34
2022-10-09T16:19:02.295Z,18.30
2022-10-09T16:21:29.628Z,18.53
2022-10-09T16:23:59.320Z,18.48
2022-10-09T16:26:28.425Z,18.39
2022-10-09T16:28:55.841Z,18.26
2022-10-09T16:31:25.915Z,18.28
2022-10-09T16:33:53.671Z,18.28
2022-10-09T16:36:21.020Z,18.35
2022-10-09T16:38:48.353Z,18.12
2022-10-09T16:41:17.977Z,18.11
2022-10-09T16:43:46.177Z,18.00
2022-10-09T16:46:23.696Z,18.11
2022-10-09T16:48:51.880Z,18.05
2022-10-09T16:51:21.495Z,18.02
2022-10-09T16:53:50.394Z,17.99
2022-10-09T16:56:19.956Z,17.68
2022-10-09T16:58:47.508Z,17.88
2022-10-09T17:01:15.433Z,17.73
2022-10-09T17:03:43.122Z,17.85
2022-10-09T17:06:11.462Z,17.93
2022-10-09T17:08:39.082Z,17.94
2022-10-09T17:11:10.364Z,17.70
2022-10-09T17:13:37.694Z,17.68
2022-10-09T17:16:06.453Z,17.72
2022-10-09T17:18:34.440Z,17.70
2022-10-09T17:21:06.042Z,17.53
2022-10-09T17:23:33.748Z,17.53
2022-10-09T17:26:11.764Z,17.58
2022-10-09T17:28:39.795Z,17.37
2022-10-09T17:31:08.719Z,17.28
2022-10-09T17:33:42.815Z,17.17
2022-10-09T17:36:11.090Z,17.17
2022-10-09T17:38:38.426Z,17.27
2022-10-09T17:41:06.604Z,17.46
2022-10-09T17:43:34.249Z,17.08
2022-10-09T17:46:01.718Z,16.85
2022-10-09T17:48:29.341Z,16.72
2022-10-09T17:50:57.594Z,16.77
2022-10-09T17:53:24.990Z,17.15
2022-10-09T17:55:53.688Z,16.73
2022-10-09T17:58:21.957Z,16.78
2022-10-09T18:00:49.482Z,16.72
2022-10-09T18:03:17.697Z,16.68
2022-10-09T18:05:47.008Z,16.95
2022-10-09T18:08:14.858Z,16.74
2022-10-09T18:10:42.489Z,16.68
2022-10-09T18:13:10.113Z,16.89
2022-10-09T18:15:38.458Z,16.93
2022-10-09T18:18:06.116Z,16.70
2022-10-09T18:20:37.177Z,16.47
2022-10-09T18:23:04.710Z,16.73
2022-10-09T18:25:32.424Z,16.84
2022-10-09T18:27:59.750Z,16.93
2022-10-09T18:30:27.787Z,16.95
2022-10-09T18:32:55.755Z,16.87
2022-10-09T18:35:23.142Z,16.94
2022-10-09T18:37:50.565Z,16.78
2022-10-09T18:40:19.371Z,16.72
2022-10-09T18:42:46.855Z,16.65
2022-10-09T18:45:14.525Z,16.55
2022-10-09T18:47:42.131Z,16.74
2022-10-09T18:50:09.897Z,16.48
2022-10-09T18:52:37.251Z,16.29
2022-10-09T18:55:05.675Z,16.45
2022-10-09T18:57:34.199Z,16.32
2022-10-09T19:00:02.220Z,16.34
2022-10-09T19:02:29.968Z,16.57
2022-10-09T19:04:57.849Z,16.65
2022-10-09T19:07:25.321Z,16.49
2022-10-09T19:09:57.136Z,16.52
2022-10-09T19:12:24.970Z,16.48
2022-10-09T19:14:52.566Z,16.51
2022-10-09T19:17:19.898Z,16.88
2022-10-09T19:19:47.268Z,16.62
2022-10-09T19:22:17.330Z,16.65
2022-10-09T19:24:46.466Z,16.53
2022-10-09T19:27:14.975Z,16.39
2022-10-09T19:29:42.703Z,16.52
2022-10-09T19:32:09.997Z,16.47
2022-10-09T19:34:37.304Z,16.68
2022-10-09T19:39:37.734Z,16.56
2022-10-09T19:42:05.346Z,16.49
2022-10-09T19:44:32.658Z,16.58
2022-10-09T19:47:00.252Z,15.69
2022-10-09T19:49:31.595Z,16.02
2022-10-09T19:51:58.972Z,16.11
2022-10-09T19:54:26.287Z,15.85
2022-10-09T19:56:53.902Z,16.42
2022-10-09T19:59:21.239Z,16.20
2022-10-09T20:01:48.554Z,16.06
2022-10-09T20:04:16.127Z,16.00
2022-10-09T20:06:43.514Z,15.99
2022-10-09T20:09:11.458Z,15.03
2022-10-09T20:11:39.308Z,15.93
2022-10-09T20:14:06.856Z,15.87
2022-10-09T20:16:34.235Z,15.48
2022-10-09T20:19:02.009Z,15.60
2022-10-09T20:21:30.282Z,15.89
2022-10-09T20:23:57.673Z,15.72
2022-10-09T20:26:25.372Z,16.03
2022-10-09T20:28:53.979Z,15.34
2022-10-09T20:31:23.131Z,15.56
2022-10-09T20:33:50.944Z,14.99
2022-10-09T20:36:21.825Z,15.32
2022-10-09T20:38:49.221Z,15.30
2022-10-09T20:41:16.888Z,15.60
2022-10-09T20:43:44.226Z,15.61
2022-10-09T20:46:13.604Z,15.82
2022-10-09T20:48:42.138Z,15.80
2022-10-09T20:51:09.824Z,15.77
2022-10-09T20:53:37.192Z,15.05
2022-10-09T20:56:06.727Z,14.99
2022-10-09T20:58:34.346Z,15.37
2022-10-09T21:01:04.854Z,15.39
2022-10-09T21:03:32.828Z,15.50
2022-10-09T21:06:03.271Z,15.60
2022-10-09T21:08:30.626Z,15.39
2022-10-09T21:10:58.263Z,15.61
2022-10-09T21:13:25.702Z,15.69
2022-10-09T21:15:53.094Z,15.20
2022-10-09T21:18:20.698Z,15.03
2022-10-09T21:20:48.924Z,14.72
2022-10-09T21:23:17.290Z,14.98
2022-10-09T21:25:52.573Z,14.90
2022-10-09T21:28:20.456Z,14.45
2022-10-09T21:30:48.087Z,14.54
2022-10-09T21:33:15.618Z,14.40
2022-10-09T21:35:47.447Z,14.30
2022-10-09T21:38:17.063Z,14.16
2022-10-09T21:40:44.554Z,13.95
2022-10-09T21:43:12.133Z,14.53
2022-10-09T21:45:40.178Z,14.73
2022-10-09T21:48:07.543Z,14.84
2022-10-09T21:50:36.293Z,14.56
2022-10-09T21:53:03.894Z,14.79
2022-10-09T21:55:31.301Z,14.54
2022-10-09T21:57:58.650Z,14.73
2022-10-09T22:00:26.256Z,13.94
2022-10-09T22:02:53.968Z,14.15
2022-10-09T22:05:21.329Z,14.11
2022-10-09T22:07:48.746Z,13.58
2022-10-09T22:10:16.344Z,13.02
2022-10-09T22:12:43.658Z,14.03
2022-10-09T22:15:10.997Z,14.01
2022-10-09T22:17:38.589Z,14.45
2022-10-09T22:20:06.125Z,14.36
2022-10-09T22:22:33.446Z,14.11
2022-10-09T22:25:01.014Z,14.31
2022-10-09T22:27:28.345Z,14.11
2022-10-09T22:29:55.758Z,14.00
2022-10-09T22:32:23.338Z,14.19
2022-10-09T22:34:52.022Z,14.05
2022-10-09T22:37:19.481Z,14.31
2022-10-09T22:39:47.257Z,14.41
2022-10-09T22:42:14.558Z,14.47
2022-10-09T22:44:42.091Z,14.62
2022-10-09T22:47:09.641Z,14.08
2022-10-09T22:49:36.962Z,14.01
2022-10-09T22:52:04.310Z,14.26
2022-10-09T22:54:31.882Z,13.51
2022-10-09T22:56:59.338Z,13.64
2022-10-09T22:59:26.815Z,13.93
2022-10-09T23:01:56.122Z,13.81
2022-10-09T23:04:23.552Z,13.97
2022-10-09T23:06:52.679Z,13.78
2022-10-09T23:09:20.779Z,13.64
2022-10-09T23:11:48.097Z,13.38
2022-10-09T23:14:15.473Z,13.97
2022-10-09T23:16:43.102Z,13.63
2022-10-09T23:19:10.479Z,13.90
2022-10-09T23:21:38.874Z,13.56
2022-10-09T23:24:06.880Z,13.98
2022-10-09T23:26:34.640Z,13.61
2022-10-09T23:29:06.415Z,13.27
2022-10-09T23:31:34.163Z,14.11
2022-10-09T23:34:02.824Z,13.93
2022-10-09T23:36:30.187Z,13.57
2022-10-09T23:38:58.222Z,13.13
2022-10-09T23:41:26.629Z,13.60
2022-10-09T23:43:54.194Z,13.71
2022-10-09T23:46:23.473Z,13.64
2022-10-09T23:48:50.947Z,13.79
2022-10-09T23:51:19.129Z,14.00
2022-10-09T23:53:47.011Z,14.37
2022-10-09T23:56:17.870Z,14.21
2022-10-09T23:58:45.246Z,13.95
